Time;durP1;ratioP1;P1;durP2;ratioP2;P2;SDS_P1;SDS_P2;PMS_P1;PMS_P2;Temp;Humidity;BMP_temperature;BMP_pressure;BME280_temperature;BME280_humidity;BME280_pressure;Samples;Min_cycle;Max_cycle;Signal;HPM_P1;HPM_P2
2023/06/13 00:02:10;;;;;;;;;;;;;;;;;;4876624;29;2057;-64
2023/06/13 00:04:43;;;;;;;;;;;;;;;;;;4876673;29;2099;-64
2023/06/13 00:07:10;;;;;;;;;;;;;;;;;;4876336;29;1955;-65
2023/06/13 00:09:37;;;;;;;;;;;;;;;;;;4876524;29;2127;-64
2023/06/13 00:12:05;;;;;;;;;;;;;;;;;;4877555;29;2178;-63
2023/06/13 00:14:32;;;;;;;;;;;;;;;;;;4880203;29;1968;-61
2023/06/13 00:17:01;;;;;;;;;;;;;;;;;;4879772;29;1953;-64
2023/06/13 00:19:30;;;;;;;;;;;;;;;;;;4879366;29;1892;-61
2023/06/13 00:21:58;;;;;;;;;;;;;;;;;;4879909;29;1977;-64
2023/06/13 00:24:25;;;;;;;;;;;;;;;;;;4880101;29;2161;-61
2023/06/13 00:26:53;;;;;;;;;;;;;;;;;;4879496;29;1988;-64
2023/06/13 00:29:20;;;;;;;;;;;;;;;;;;4879914;29;1775;-64
2023/06/13 00:31:48;;;;;;;;;;;;;;;;;;4879850;29;1985;-63
2023/06/13 00:34:16;;;;;;;;;;;;;;;;;;4879822;29;2132;-64
2023/06/13 00:36:44;;;;;;;;;;;;;;;;;;4879812;29;2181;-56
2023/06/13 00:39:11;;;;;;;;;;;;;;;;;;4878310;29;2299;-64
2023/06/13 00:41:39;;;;;;;;;;;;;;;;;;4879797;29;2042;-61
2023/06/13 00:44:07;;;;;;;;;;;;;;;;;;4879510;29;2159;-64
2023/06/13 00:46:35;;;;;;;;;;;;;;;;;;4879415;29;2008;-65
2023/06/13 00:49:04;;;;;;;;;;;;;;;;;;4879173;29;2461;-64
2023/06/13 00:51:33;;;;;;;;;;;;;;;;;;4879418;29;2172;-62
2023/06/13 00:54:02;;;;;;;;;;;;;;;;;;4890909;29;2235;-62
2023/06/13 00:56:30;;;;;;;;;;;;;;;;;;4860940;29;1898;-63
2023/06/13 00:58:58;;;;;;;;;;;;;;;;;;4874747;29;2028;-64
2023/06/13 01:01:27;;;;;;;;;;;;;;;;;;4860462;29;2204;-63
2023/06/13 01:03:55;;;;;;;;;;;;;;;;;;4860810;29;2240;-57
2023/06/13 01:06:28;;;;;;;;;;;;;;;;;;4860706;29;2060;-62
2023/06/13 01:09:00;;;;;;;;;;;;;;;;;;4860507;29;1980;-62
2023/06/13 01:11:33;;;;;;;;;;;;;;;;;;4860588;29;2014;-63
2023/06/13 01:14:07;;;;;;;;;;;;;;;;;;4874648;29;1938;-62
2023/06/13 01:16:45;;;;;;;;;;;;;;;;;;4860429;29;1886;-64
2023/06/13 01:19:37;;;;;;;;;;;;;;;;;;4895333;29;2058;-64
2023/06/13 01:22:08;;;;;;;;;;;;;;;;;;4860058;29;1897;-63
2023/06/13 01:24:48;;;;;;;;;;;;;;;;;;4888413;29;2005;-64
2023/06/13 01:27:16;;;;;;;;;;;;;;;;;;4875992;29;2215;-60
2023/06/13 01:29:43;;;;;;;;;;;;;;;;;;4860400;29;2153;-64
2023/06/13 01:32:11;;;;;;;;;;;;;;;;;;4860532;29;1722;-61
2023/06/13 01:34:40;;;;;;;;;;;;;;;;;;4859003;29;2060;-62
2023/06/13 01:37:09;;;;;;;;;;;;;;;;;;4858757;29;1957;-62
2023/06/13 01:39:36;;;;;;;;;;;;;;;;;;4859906;29;2442;-61
2023/06/13 01:42:03;;;;;;;;;;;;;;;;;;4860203;29;2406;-64
2023/06/13 01:44:30;;;;;;;;;;;;;;;;;;4860062;29;2119;-58
2023/06/13 01:47:16;;;;;;;;;;;;;;;;;;4874240;29;2090;-63
2023/06/13 01:49:43;;;;;;;;;;;;;;;;;;4860290;29;2039;-65
2023/06/13 01:52:20;;;;;;;;;;;;;;;;;;4859760;29;2178;-60
2023/06/13 01:54:55;;;;;;;;;;;;;;;;;;4873950;29;2111;-64
2023/06/13 01:57:26;;;;;;;;;;;;;;;;;;4878461;29;2029;-64
2023/06/13 01:59:55;;;;;;;;;;;;;;;;;;4892174;29;2046;-61
2023/06/13 02:02:23;;;;;;;;;;;;;;;;;;4876914;29;2197;-60
2023/06/13 02:04:51;;;;;;;;;;;;;;;;;;4878337;29;2068;-64
2023/06/13 02:07:18;;;;;;;;;;;;;;;;;;4878401;29;2073;-64
2023/06/13 02:09:45;;;;;;;;;;;;;;;;;;4892670;29;2077;-62
2023/06/13 02:12:16;;;;;;;;;;;;;;;;;;4878186;29;1874;-64
2023/06/13 02:14:44;;;;;;;;;;;;;;;;;;4878176;29;2168;-64
2023/06/13 02:17:12;;;;;;;;;;;;;;;;;;4877782;29;1951;-64
2023/06/13 02:19:39;;;;;;;;;;;;;;;;;;4878009;29;2124;-64
2023/06/13 02:22:07;;;;;;;;;;;;;;;;;;4876762;29;2172;-64
2023/06/13 02:24:35;;;;;;;;;;;;;;;;;;4873385;29;1931;-64
2023/06/13 02:27:03;;;;;;;;;;;;;;;;;;4857614;29;2030;-55
2023/06/13 02:29:31;;;;;;;;;;;;;;;;;;4859100;29;2207;-61
2023/06/13 02:31:58;;;;;;;;;;;;;;;;;;4858988;29;1956;-60
2023/06/13 02:34:25;;;;;;;;;;;;;;;;;;4876850;29;2098;-62
2023/06/13 02:36:52;;;;;;;;;;;;;;;;;;4877621;29;2162;-61
2023/06/13 02:39:19;;;;;;;;;;;;;;;;;;4877651;29;2037;-60
2023/06/13 02:41:46;;;;;;;;;;;;;;;;;;4877666;29;2017;-62
2023/06/13 02:44:14;;;;;;;;;;;;;;;;;;4877308;29;1826;-61
2023/06/13 02:46:41;;;;;;;;;;;;;;;;;;4891422;29;1922;-63
2023/06/13 02:49:09;;;;;;;;;;;;;;;;;;4877966;29;1961;-63
2023/06/13 02:51:36;;;;;;;;;;;;;;;;;;4877405;29;1835;-58
2023/06/13 02:54:04;;;;;;;;;;;;;;;;;;4892253;29;2123;-62
2023/06/13 02:56:31;;;;;;;;;;;;;;;;;;4872888;29;2007;-60
2023/06/13 02:58:58;;;;;;;;;;;;;;;;;;4873074;29;1963;-58
2023/06/13 03:01:26;;;;;;;;;;;;;;;;;;4872905;29;2044;-58
2023/06/13 03:03:58;;;;;;;;;;;;;;;;;;4891365;29;1887;-61
2023/06/13 03:06:31;;;;;;;;;;;;;;;;;;4876925;29;2150;-63
2023/06/13 03:09:02;;;;;;;;;;;;;;;;;;4891868;29;2135;-63
2023/06/13 03:11:32;;;;;;;;;;;;;;;;;;4891216;29;2182;-56
2023/06/13 03:13:59;;;;;;;;;;;;;;;;;;4891463;29;1974;-55
2023/06/13 03:16:28;;;;;;;;;;;;;;;;;;4877060;29;1702;-58
2023/06/13 03:18:57;;;;;;;;;;;;;;;;;;4891191;29;2097;-54
2023/06/13 03:21:24;;;;;;;;;;;;;;;;;;4876966;29;2223;-56
2023/06/13 03:23:52;;;;;;;;;;;;;;;;;;4891408;29;2025;-62
2023/06/13 03:26:20;;;;;;;;;;;;;;;;;;4876150;29;2170;-63
2023/06/13 03:28:48;;;;;;;;;;;;;;;;;;4876794;29;1985;-63
2023/06/13 03:31:16;;;;;;;;;;;;;;;;;;4891037;29;2043;-60
2023/06/13 03:33:44;;;;;;;;;;;;;;;;;;4876791;29;2152;-64
2023/06/13 03:36:11;;;;;;;;;;;;;;;;;;4864817;29;1957;-64
2023/06/13 03:38:39;;;;;;;;;;;;;;;;;;4858272;29;2231;-64
2023/06/13 03:41:07;;;;;;;;;;;;;;;;;;4872418;29;2023;-64
2023/06/13 03:43:34;;;;;;;;;;;;;;;;;;4858114;29;2040;-64
2023/06/13 03:46:03;;;;;;;;;;;;;;;;;;4871930;29;2149;-63
2023/06/13 03:48:30;;;;;;;;;;;;;;;;;;4858018;29;1970;-65
2023/06/13 03:50:58;;;;;;;;;;;;;;;;;;4884347;29;2250;-55
2023/06/13 03:53:26;;;;;;;;;;;;;;;;;;4860858;29;2146;-57
2023/06/13 03:55:54;;;;;;;;;;;;;;;;;;4876810;29;2179;-55
2023/06/13 03:58:22;;;;;;;;;;;;;;;;;;4890930;29;2243;-59
2023/06/13 04:00:50;;;;;;;;;;;;;;;;;;4876329;29;2266;-57
2023/06/13 04:03:19;;;;;;;;;;;;;;;;;;4876398;29;2277;-55
2023/06/13 04:05:48;;;;;;;;;;;;;;;;;;4890609;29;2241;-61
2023/06/13 04:08:17;;;;;;;;;;;;;;;;;;4890444;29;2426;-54
2023/06/13 04:10:44;;;;;;;;;;;;;;;;;;4876504;29;2072;-63
2023/06/13 04:13:11;;;;;;;;;;;;;;;;;;4876306;29;2204;-63
2023/06/13 04:15:38;;;;;;;;;;;;;;;;;;4876454;29;2022;-57
2023/06/13 04:18:05;;;;;;;;;;;;;;;;;;4876457;29;2248;-61
2023/06/13 04:20:34;;;;;;;;;;;;;;;;;;4890483;29;1984;-53
2023/06/13 04:23:01;;;;;;;;;;;;;;;;;;4890464;29;2316;-56
2023/06/13 04:25:28;;;;;;;;;;;;;;;;;;4874803;29;2214;-55
2023/06/13 04:27:57;;;;;;;;;;;;;;;;;;4876113;29;2168;-62
2023/06/13 04:30:25;;;;;;;;;;;;;;;;;;4876515;29;2080;-56
2023/06/13 04:32:52;;;;;;;;;;;;;;;;;;4890451;29;2170;-56
2023/06/13 04:35:22;;;;;;;;;;;;;;;;;;4876109;29;2757;-61
2023/06/13 04:37:51;;;;;;;;;;;;;;;;;;4876061;29;2179;-53
2023/06/13 04:40:19;;;;;;;;;;;;;;;;;;4875896;29;1938;-54
2023/06/13 04:42:51;;;;;;;;;;;;;;;;;;4875990;29;2171;-55
2023/06/13 04:45:20;;;;;;;;;;;;;;;;;;4866009;29;1978;-53
2023/06/13 04:47:48;;;;;;;;;;;;;;;;;;4857578;29;2192;-64
2023/06/13 04:50:25;;;;;;;;;;;;;;;;;;4857565;29;2310;-53
2023/06/13 04:52:53;;;;;;;;;;;;;;;;;;4857394;29;2145;-56
2023/06/13 04:55:22;;;;;;;;;;;;;;;;;;4875856;29;2125;-67
2023/06/13 04:57:50;;;;;;;;;;;;;;;;;;4876675;29;2104;-58
2023/06/13 05:00:18;;;;;;;;;;;;;;;;;;4879273;29;2189;-60
2023/06/13 05:02:46;;;;;;;;;;;;;;;;;;4879420;29;2077;-60
2023/06/13 05:05:16;;;;;;;;;;;;;;;;;;4879086;29;2256;-53
2023/06/13 05:07:44;;;;;;;;;;;;;;;;;;4879176;29;2375;-64
2023/06/13 05:10:12;;;;;;;;;;;;;;;;;;4877304;29;2063;-55
2023/06/13 05:12:43;;;;;;;;;;;;;;;;;;4879363;29;2217;-63
2023/06/13 05:15:10;;;;;;;;;;;;;;;;;;4879132;29;1792;-53
2023/06/13 05:17:38;;;;;;;;;;;;;;;;;;4879041;29;1818;-56
2023/06/13 05:20:05;;;;;;;;;;;;;;;;;;4878885;29;2093;-55
2023/06/13 05:22:33;;;;;;;;;;;;;;;;;;4878879;29;1969;-53
2023/06/13 05:25:00;;;;;;;;;;;;;;;;;;4878986;29;2277;-53
2023/06/13 05:27:28;;;;;;;;;;;;;;;;;;4878955;29;2216;-55
2023/06/13 05:29:55;;;;;;;;;;;;;;;;;;4878748;29;2185;-64
2023/06/13 05:32:23;;;;;;;;;;;;;;;;;;4878819;29;2041;-63
2023/06/13 05:34:50;;;;;;;;;;;;;;;;;;4878792;29;2329;-63
2023/06/13 05:37:17;;;;;;;;;;;;;;;;;;4879013;29;2106;-53
2023/06/13 05:39:44;;;;;;;;;;;;;;;;;;4867971;29;2223;-55
2023/06/13 05:42:12;;;;;;;;;;;;;;;;;;4872217;29;2157;-52
2023/06/13 05:44:39;;;;;;;;;;;;;;;;;;4876414;29;2097;-54
2023/06/13 05:47:06;;;;;;;;;;;;;;;;;;4872150;29;2099;-50
2023/06/13 05:49:34;;;;;;;;;;;;;;;;;;4883309;29;2084;-56
2023/06/13 05:52:01;;;;;;;;;;;;;;;;;;4873901;29;1833;-62
2023/06/13 05:54:29;;;;;;;;;;;;;;;;;;4880422;29;2085;-60
2023/06/13 05:56:56;;;;;;;;;;;;;;;;;;4880532;29;2148;-61
2023/06/13 05:59:23;;;;;;;;;;;;;;;;;;4878685;29;2100;-66
2023/06/13 06:01:50;;;;;;;;;;;;;;;;;;4877661;29;2110;-58
2023/06/13 06:04:17;;;;;;;;;;;;;;;;;;4881492;29;1843;-54
2023/06/13 06:06:45;;;;;;;;;;;;;;;;;;4878083;29;1973;-62
2023/06/13 06:09:13;;;;;;;;;;;;;;;;;;4865650;29;2143;-54
2023/06/13 06:11:41;;;;;;;;;;;;;;;;;;4877675;29;1879;-62
2023/06/13 06:14:09;;;;;;;;;;;;;;;;;;4877954;29;2050;-53
2023/06/13 06:16:36;;;;;;;;;;;;;;;;;;4875708;29;1986;-58
2023/06/13 06:19:03;;;;;;;;;;;;;;;;;;4878151;29;2153;-58
2023/06/13 06:21:30;;;;;;;;;;;;;;;;;;4879319;29;1944;-52
2023/06/13 06:23:57;;;;;;;;;;;;;;;;;;4877845;29;2116;-56
2023/06/13 06:26:26;;;;;;;;;;;;;;;;;;4877498;29;2053;-53
2023/06/13 06:28:53;;;;;;;;;;;;;;;;;;4877700;29;2214;-63
2023/06/13 06:31:21;;;;;;;;;;;;;;;;;;4870434;29;2096;-66
2023/06/13 06:33:48;;;;;;;;;;;;;;;;;;4872727;29;2240;-65
2023/06/13 06:36:19;;;;;;;;;;;;;;;;;;4877718;29;2173;-67
2023/06/13 06:38:46;;;;;;;;;;;;;;;;;;4877653;29;2181;-56
2023/06/13 06:41:13;;;;;;;;;;;;;;;;;;4877351;29;2335;-51
2023/06/13 06:43:41;;;;;;;;;;;;;;;;;;4877595;29;2288;-51
2023/06/13 06:46:10;;;;;;;;;;;;;;;;;;4891969;29;1840;-59
2023/06/13 06:48:38;;;;;;;;;;;;;;;;;;4877453;29;1973;-53
2023/06/13 06:51:05;;;;;;;;;;;;;;;;;;4877393;29;2224;-54
2023/06/13 06:53:32;;;;;;;;;;;;;;;;;;4877336;29;2054;-54
2023/06/13 06:56:02;;;;;;;;;;;;;;;;;;4877919;29;2340;-59
2023/06/13 06:58:29;;;;;;;;;;;;;;;;;;4876779;29;2077;-53
2023/06/13 07:01:00;;;;;;;;;;;;;;;;;;4864932;29;2082;-54
2023/06/13 07:03:27;;;;;;;;;;;;;;;;;;4858851;29;2025;-65
2023/06/13 07:05:55;;;;;;;;;;;;;;;;;;4858680;29;2034;-53
2023/06/13 07:08:22;;;;;;;;;;;;;;;;;;4858463;29;2176;-63
2023/06/13 07:10:49;;;;;;;;;;;;;;;;;;4858643;29;2254;-63
2023/06/13 07:13:18;;;;;;;;;;;;;;;;;;4872363;29;2418;-60
2023/06/13 07:15:45;;;;;;;;;;;;;;;;;;4876981;29;2146;-62
2023/06/13 07:18:12;;;;;;;;;;;;;;;;;;4876368;29;2146;-64
2023/06/13 07:20:40;;;;;;;;;;;;;;;;;;4872800;29;2040;-51
2023/06/13 07:23:07;;;;;;;;;;;;;;;;;;4876824;29;2603;-62
2023/06/13 07:25:34;;;;;;;;;;;;;;;;;;4877605;29;2134;-64
2023/06/13 07:28:01;;;;;;;;;;;;;;;;;;4876749;29;2242;-63
2023/06/13 07:30:29;;;;;;;;;;;;;;;;;;4876840;29;2159;-57
2023/06/13 07:32:56;;;;;;;;;;;;;;;;;;4876984;29;2046;-53
2023/06/13 07:35:26;;;;;;;;;;;;;;;;;;4876694;29;1920;-66
2023/06/13 07:37:54;;;;;;;;;;;;;;;;;;4876845;29;1895;-66
2023/06/13 07:40:21;;;;;;;;;;;;;;;;;;4876781;29;1906;-52
2023/06/13 07:42:49;;;;;;;;;;;;;;;;;;4876335;29;1828;-57
2023/06/13 07:45:16;;;;;;;;;;;;;;;;;;4876653;29;2131;-54
2023/06/13 07:47:44;;;;;;;;;;;;;;;;;;4876605;29;2055;-63
2023/06/13 07:50:11;;;;;;;;;;;;;;;;;;4876861;29;1971;-62
2023/06/13 07:52:39;;;;;;;;;;;;;;;;;;4876730;29;2059;-61
2023/06/13 07:55:07;;;;;;;;;;;;;;;;;;4881148;29;1887;-56
2023/06/13 07:57:34;;;;;;;;;;;;;;;;;;4862119;29;2113;-53
2023/06/13 08:00:20;;;;;;;;;;;;;;;;;;4876508;29;2078;-62
2023/06/13 08:02:47;;;;;;;;;;;;;;;;;;4876554;29;2092;-49
2023/06/13 08:05:15;;;;;;;;;;;;;;;;;;4876714;29;2001;-61
2023/06/13 08:07:42;;;;;;;;;;;;;;;;;;4876268;29;1915;-54
2023/06/13 08:10:10;;;;;;;;;;;;;;;;;;4876559;29;2100;-59
2023/06/13 08:12:37;;;;;;;;;;;;;;;;;;4876639;29;2034;-60
2023/06/13 08:15:05;;;;;;;;;;;;;;;;;;4876466;29;1949;-63
2023/06/13 08:17:36;;;;;;;;;;;;;;;;;;4876243;29;2089;-52
2023/06/13 08:20:04;;;;;;;;;;;;;;;;;;4876403;29;2058;-49
2023/06/13 08:22:31;;;;;;;;;;;;;;;;;;4875710;29;1808;-52
2023/06/13 08:24:59;;;;;;;;;;;;;;;;;;4876480;29;2228;-49
2023/06/13 08:27:26;;;;;;;;;;;;;;;;;;4875400;29;2042;-50
2023/06/13 08:29:53;;;;;;;;;;;;;;;;;;4876102;29;2066;-64
2023/06/13 08:32:21;;;;;;;;;;;;;;;;;;4876213;29;1993;-60
2023/06/13 08:34:48;;;;;;;;;;;;;;;;;;4879525;29;2008;-52
2023/06/13 08:37:15;;;;;;;;;;;;;;;;;;4879215;29;2059;-62
2023/06/13 08:39:43;;;;;;;;;;;;;;;;;;4879395;29;2103;-55
2023/06/13 08:42:11;;;;;;;;;;;;;;;;;;4879460;29;1955;-49
2023/06/13 08:44:39;;;;;;;;;;;;;;;;;;4879683;29;2015;-51
2023/06/13 08:47:08;;;;;;;;;;;;;;;;;;4893690;29;2090;-49
2023/06/13 08:49:48;;;;;;;;;;;;;;;;;;4879152;29;1989;-52
2023/06/13 08:52:17;;;;;;;;;;;;;;;;;;4869172;29;2176;-50
2023/06/13 08:54:45;;;;;;;;;;;;;;;;;;4880507;29;2154;-59
2023/06/13 08:57:30;;;;;;;;;;;;;;;;;;4877433;29;2082;-61
2023/06/13 08:59:58;;;;;;;;;;;;;;;;;;4878850;29;2108;-62
2023/06/13 09:02:26;;;;;;;;;;;;;;;;;;4878842;29;2115;-61
2023/06/13 09:04:56;;;;;;;;;;;;;;;;;;4878817;29;2099;-58
2023/06/13 09:07:27;;;;;;;;;;;;;;;;;;4878859;29;2067;-58
2023/06/13 09:09:57;;;;;;;;;;;;;;;;;;4862981;29;2039;-58
2023/06/13 09:12:25;;;;;;;;;;;;;;;;;;4860505;29;2143;-55
2023/06/13 09:14:52;;;;;;;;;;;;;;;;;;4860385;29;1973;-59
2023/06/13 09:17:19;;;;;;;;;;;;;;;;;;4872617;29;2008;-60
2023/06/13 09:19:47;;;;;;;;;;;;;;;;;;4878672;29;2174;-60
2023/06/13 09:22:18;;;;;;;;;;;;;;;;;;4878652;29;2197;-63
2023/06/13 09:24:46;;;;;;;;;;;;;;;;;;4878938;29;2079;-61
2023/06/13 09:27:14;;;;;;;;;;;;;;;;;;4878923;29;1946;-61
2023/06/13 09:29:41;;;;;;;;;;;;;;;;;;4878695;29;1972;-59
2023/06/13 09:32:10;;;;;;;;;;;;;;;;;;4878595;29;1950;-62
2023/06/13 09:34:57;;;;;;;;;;;;;;;;;;4878392;29;2024;-62
2023/06/13 09:37:27;;;;;;;;;;;;;;;;;;4878292;29;2087;-62
2023/06/13 09:39:54;;;;;;;;;;;;;;;;;;4878349;29;2045;-61
2023/06/13 09:42:35;;;;;;;;;;;;;;;;;;4877833;29;2200;-55
2023/06/13 09:45:08;;;;;;;;;;;;;;;;;;4878085;29;2027;-61
2023/06/13 09:47:35;;;;;;;;;;;;;;;;;;4878094;29;1959;-50
2023/06/13 09:50:02;;;;;;;;;;;;;;;;;;4878227;29;1987;-62
2023/06/13 09:52:32;;;;;;;;;;;;;;;;;;4859481;29;2160;-63
2023/06/13 09:55:00;;;;;;;;;;;;;;;;;;4875347;29;2143;-61
2023/06/13 09:57:27;;;;;;;;;;;;;;;;;;4878184;29;2047;-60
2023/06/13 10:00:08;;;;;;;;;;;;;;;;;;4877799;29;2113;-57
2023/06/13 10:02:37;;;;;;;;;;;;;;;;;;4878166;29;1942;-59
2023/06/13 10:05:04;;;;;;;;;;;;;;;;;;4877872;29;2280;-51
2023/06/13 10:07:32;;;;;;;;;;;;;;;;;;4877496;29;2005;-60
2023/06/13 10:10:00;;;;;;;;;;;;;;;;;;4877720;29;2370;-62
2023/06/13 10:12:27;;;;;;;;;;;;;;;;;;4878065;29;2040;-55
2023/06/13 10:14:56;;;;;;;;;;;;;;;;;;4877853;29;2154;-50
2023/06/13 10:17:26;;;;;;;;;;;;;;;;;;4877417;29;2004;-61
2023/06/13 10:19:57;;;;;;;;;;;;;;;;;;4877511;29;2029;-50
2023/06/13 10:22:25;;;;;;;;;;;;;;;;;;4877239;29;1925;-62
2023/06/13 10:24:53;;;;;;;;;;;;;;;;;;4877416;29;1967;-62
2023/06/13 10:27:22;;;;;;;;;;;;;;;;;;4877309;29;2233;-61
2023/06/13 10:29:58;;;;;;;;;;;;;;;;;;4877610;29;2036;-58
2023/06/13 10:32:37;;;;;;;;;;;;;;;;;;4877266;29;1835;-64
2023/06/13 10:35:36;;;;;;;;;;;;;;;;;;4877446;29;2039;-62
2023/06/13 10:38:05;;;;;;;;;;;;;;;;;;4865756;29;2171;-61
2023/06/13 10:40:51;;;;;;;;;;;;;;;;;;4872900;29;1978;-59
2023/06/13 10:43:23;;;;;;;;;;;;;;;;;;4858982;29;2016;-62
2023/06/13 10:45:52;;;;;;;;;;;;;;;;;;4858622;29;2062;-56
2023/06/13 10:48:35;;;;;;;;;;;;;;;;;;4858542;29;2222;-61
2023/06/13 10:51:09;;;;;;;;;;;;;;;;;;4858729;29;2050;-62
2023/06/13 10:53:44;;;;;;;;;;;;;;;;;;4876753;29;1918;-58
2023/06/13 10:56:17;;;;;;;;;;;;;;;;;;4876452;29;2024;-63
2023/06/13 10:58:47;;;;;;;;;;;;;;;;;;4877255;29;2030;-65
2023/06/13 11:01:28;;;;;;;;;;;;;;;;;;4877035;29;1933;-60
2023/06/13 11:04:13;;;;;;;;;;;;;;;;;;4876350;29;1950;-64
2023/06/13 11:06:45;;;;;;;;;;;;;;;;;;4876645;29;2077;-62
2023/06/13 11:09:18;;;;;;;;;;;;;;;;;;4890894;29;2050;-61
2023/06/13 11:11:47;;;;;;;;;;;;;;;;;;4876581;29;2122;-60
2023/06/13 11:14:15;;;;;;;;;;;;;;;;;;4876454;29;1995;-62
2023/06/13 11:16:45;;;;;;;;;;;;;;;;;;4876694;29;2090;-62
2023/06/13 11:19:15;;;;;;;;;;;;;;;;;;4876690;29;1953;-63
2023/06/13 11:21:46;;;;;;;;;;;;;;;;;;4876656;29;1914;-52
2023/06/13 11:24:16;;;;;;;;;;;;;;;;;;4876692;29;2170;-54
2023/06/13 11:26:46;;;;;;;;;;;;;;;;;;4876685;29;2096;-63
2023/06/13 11:29:14;;;;;;;;;;;;;;;;;;4876754;29;2124;-53
2023/06/13 11:31:41;;;;;;;;;;;;;;;;;;4876276;29;2045;-63
2023/06/13 11:34:13;;;;;;;;;;;;;;;;;;4876435;29;2254;-57
2023/06/13 11:36:45;;;;;;;;;;;;;;;;;;4876385;29;1999;-62
2023/06/13 11:39:15;;;;;;;;;;;;;;;;;;4876307;29;1970;-60
2023/06/13 12:27:01;;;;;;;;;;;;;;;;;;4857610;29;1678;-55
2023/06/13 12:31:05;;;;;;;;;;;;;;;;;;4879668;29;2087;-56
2023/06/13 12:35:04;;;;;;;;;;;;;;;;;;4879854;29;2153;-53
2023/06/13 12:39:04;;;;;;;;;;;;;;;;;;4880034;29;2178;-59
2023/06/13 12:43:01;;;;;;;;;;;;;;;;;;4879937;29;2039;-64
2023/06/13 12:47:02;;;;;;;;;;;;;;;;;;4879568;29;2044;-66
2023/06/13 12:51:01;;;;;;;;;;;;;;;;;;4879380;29;1970;-61
2023/06/13 12:55:00;;;;;;;;;;;;;;;;;;4881565;29;2210;-50
2023/06/13 12:59:01;;;;;;;;;;;;;;;;;;4879349;29;1957;-62
2023/06/13 13:03:00;;;;;;;;;;;;;;;;;;4860574;29;2151;-64
2023/06/13 13:06:58;;;;;;;;;;;;;;;;;;4885012;29;2020;-61
2023/06/13 13:10:56;;;;;;;;;;;;;;;;;;4878808;29;1914;-64
2023/06/13 13:14:54;;;;;;;;;;;;;;;;;;4878753;29;1894;-60
2023/06/13 13:18:54;;;;;;;;;;;;;;;;;;4878587;29;2086;-65
2023/06/13 13:22:53;;;;;;;;;;;;;;;;;;4878632;29;2068;-52
2023/06/13 13:26:24;;;;;;;;;;;;;;;;;;4879013;29;2055;-63
2023/06/13 14:55:10;;;;;;;;;;;;;;;;;;5191057;27;1887;-59
2023/06/13 14:57:38;;;;;;;;;;;;;;;;;;5190775;27;1842;-60
2023/06/13 15:00:06;;;;;;;;;;;;;;;;;;5190621;27;1959;-54
2023/06/13 15:02:33;;;;;;;;;;;;;;;;;;5190387;27;1734;-54
2023/06/13 15:05:00;;;;;;;;;;;;;;;;;;5191070;27;1815;-55
2023/06/13 15:07:28;;;;;;;;;;;;;;;;;;5190753;27;1638;-59
2023/06/13 15:09:55;;;;;;;;;;;;;;;;;;5190468;27;1745;-56
2023/06/13 15:12:23;;;;;;;;;;;;;;;;;;5190329;27;1836;-59
2023/06/13 15:14:50;;;;;;;;;;;;;;;;;;5190339;27;1909;-61
2023/06/13 15:17:19;;;;;;;;;;;;;;;;;;5190254;27;1828;-60
2023/06/13 15:19:46;;;;;;;;;;;;;;;;;;5190164;27;1765;-57
2023/06/13 15:22:14;;;;;;;;;;;;;;;;;;5190198;27;2039;-58
2023/06/13 15:24:41;;;;;;;;;;;;;;;;;;5189596;27;1651;-58
2023/06/13 15:27:09;;;;;;;;;;;;;;;;;;5190374;27;1714;-62
2023/06/13 15:29:37;;;;;;;;;;;;;;;;;;5189899;27;1669;-58
2023/06/13 15:32:04;;;;;;;;;;;;;;;;;;5190216;27;1734;-51
2023/06/13 15:34:32;;;;;;;;;;;;;;;;;;5190124;27;1934;-50
2023/06/13 15:37:00;;;;;;;;;;;;;;;;;;5189947;27;1694;-51
2023/06/13 15:39:27;;;;;;;;;;;;;;;;;;5189616;27;1752;-50
2023/06/13 15:41:55;;;;;;;;;;;;;;;;;;5189749;27;1760;-51
2023/06/13 15:44:23;;;;;;;;;;;;;;;;;;5189887;27;1661;-62
2023/06/13 15:46:50;;;;;;;;;;;;;;;;;;5189987;27;1860;-54
2023/06/13 15:49:17;;;;;;;;;;;;;;;;;;5187904;27;1867;-58
2023/06/13 15:51:44;;;;;;;;;;;;;;;;;;5189711;27;2192;-51
2023/06/13 15:54:12;;;;;;;;;;;;;;;;;;5189246;27;1956;-52
2023/06/13 15:56:39;;;;;;;;;;;;;;;;;;5189363;27;1719;-51
2023/06/13 15:59:06;;;;;;;;;;;;;;;;;;5189709;27;1670;-49
2023/06/13 16:01:34;;;;;;;;;;;;;;;;;;5189755;27;1625;-52
2023/06/13 16:04:01;;;;;;;;;;;;;;;;;;5189484;27;1672;-56
2023/06/13 16:06:28;;;;;;;;;;;;;;;;;;5175441;27;2191;-48
2023/06/13 16:08:55;;;;;;;;;;;;;;;;;;5175383;27;1895;-50
2023/06/13 16:11:23;;;;;;;;;;;;;;;;;;5175277;27;1623;-50
2023/06/13 16:13:50;;;;;;;;;;;;;;;;;;5175344;27;1911;-61
2023/06/13 16:16:18;;;;;;;;;;;;;;;;;;5174762;27;1709;-51
2023/06/13 16:18:45;;;;;;;;;;;;;;;;;;5175247;27;1623;-59
2023/06/13 16:21:13;;;;;;;;;;;;;;;;;;5175134;27;1718;-53
2023/06/13 16:23:40;;;;;;;;;;;;;;;;;;5172352;27;1635;-60
2023/06/13 16:26:08;;;;;;;;;;;;;;;;;;5174653;27;1864;-54
2023/06/13 16:28:35;;;;;;;;;;;;;;;;;;5172986;27;1875;-54
2023/06/13 16:31:02;;;;;;;;;;;;;;;;;;5172746;27;1899;-51
2023/06/13 16:33:30;;;;;;;;;;;;;;;;;;5174491;27;1976;-55
2023/06/13 16:35:58;;;;;;;;;;;;;;;;;;5174924;27;1809;-61
2023/06/13 16:38:27;;;;;;;;;;;;;;;;;;5174826;27;2002;-62
2023/06/13 16:40:55;;;;;;;;;;;;;;;;;;5174242;27;1788;-61
2023/06/13 16:43:25;;;;;;;;;;;;;;;;;;5174371;27;1840;-60
2023/06/13 16:45:52;;;;;;;;;;;;;;;;;;5174522;27;1692;-51
2023/06/13 16:48:19;;;;;;;;;;;;;;;;;;5174467;27;1998;-52
2023/06/13 16:50:47;;;;;;;;;;;;;;;;;;5174578;27;1774;-56
2023/06/13 16:53:14;;;;;;;;;;;;;;;;;;5173755;27;1902;-50
2023/06/13 16:55:41;;;;;;;;;;;;;;;;;;5172174;27;1634;-61
2023/06/13 16:58:09;;;;;;;;;;;;;;;;;;5172473;27;1745;-50
2023/06/13 17:00:36;;;;;;;;;;;;;;;;;;5174313;27;1659;-56
2023/06/13 17:03:03;;;;;;;;;;;;;;;;;;5174180;27;1826;-57
2023/06/13 17:05:31;;;;;;;;;;;;;;;;;;5174265;27;1700;-62
2023/06/13 17:07:58;;;;;;;;;;;;;;;;;;5174268;27;1763;-60
2023/06/13 17:10:25;;;;;;;;;;;;;;;;;;5173800;27;1631;-59
2023/06/13 17:12:52;;;;;;;;;;;;;;;;;;5173946;27;1718;-59
2023/06/13 17:15:20;;;;;;;;;;;;;;;;;;5174081;27;1941;-60
2023/06/13 17:17:47;;;;;;;;;;;;;;;;;;5172956;27;1940;-60
2023/06/13 17:20:15;;;;;;;;;;;;;;;;;;5173738;27;1729;-62
2023/06/13 17:22:42;;;;;;;;;;;;;;;;;;5173963;27;1866;-62
2023/06/13 17:25:09;;;;;;;;;;;;;;;;;;5155815;27;1897;-63
2023/06/13 17:27:37;;;;;;;;;;;;;;;;;;5173997;27;1841;-62
2023/06/13 17:30:04;;;;;;;;;;;;;;;;;;5173273;27;1808;-61
2023/06/13 17:32:32;;;;;;;;;;;;;;;;;;5174107;27;1789;-61
2023/06/13 17:34:59;;;;;;;;;;;;;;;;;;5173426;27;1972;-58
2023/06/13 17:37:27;;;;;;;;;;;;;;;;;;5173796;27;2094;-60
2023/06/13 17:39:54;;;;;;;;;;;;;;;;;;5173096;27;2091;-63
2023/06/13 17:42:22;;;;;;;;;;;;;;;;;;5168528;27;2099;-60
2023/06/13 17:44:49;;;;;;;;;;;;;;;;;;5172815;27;1809;-60
2023/06/13 17:47:17;;;;;;;;;;;;;;;;;;5173040;27;1698;-56
2023/06/13 17:49:44;;;;;;;;;;;;;;;;;;5173019;27;2006;-63
2023/06/13 17:52:11;;;;;;;;;;;;;;;;;;5171779;27;1791;-59
2023/06/13 17:54:40;;;;;;;;;;;;;;;;;;5171413;27;1917;-59
2023/06/13 17:57:07;;;;;;;;;;;;;;;;;;5170983;27;2070;-62
2023/06/13 17:59:35;;;;;;;;;;;;;;;;;;5172805;27;2066;-62
2023/06/13 18:02:02;;;;;;;;;;;;;;;;;;5172363;27;1795;-54
2023/06/13 18:04:32;;;;;;;;;;;;;;;;;;5172034;27;1771;-63
2023/06/13 18:07:01;;;;;;;;;;;;;;;;;;5172554;27;2108;-62
2023/06/13 18:09:29;;;;;;;;;;;;;;;;;;5172303;27;1827;-60
2023/06/13 18:11:56;;;;;;;;;;;;;;;;;;5172603;27;1878;-60
2023/06/13 18:14:29;;;;;;;;;;;;;;;;;;5172042;27;1972;-56
2023/06/13 18:16:56;;;;;;;;;;;;;;;;;;5172468;27;1836;-63
2023/06/13 18:19:24;;;;;;;;;;;;;;;;;;5171689;27;1728;-50
2023/06/13 18:21:51;;;;;;;;;;;;;;;;;;5172325;27;1791;-62
2023/06/13 18:24:19;;;;;;;;;;;;;;;;;;5172281;27;1962;-62
2023/06/13 18:26:46;;;;;;;;;;;;;;;;;;5171954;27;1921;-62
2023/06/13 18:29:13;;;;;;;;;;;;;;;;;;5172286;27;1862;-63
2023/06/13 18:31:41;;;;;;;;;;;;;;;;;;5172242;27;1674;-63
2023/06/13 18:34:08;;;;;;;;;;;;;;;;;;5171866;27;1984;-63
2023/06/13 18:36:36;;;;;;;;;;;;;;;;;;5172313;27;1801;-61
2023/06/13 18:39:04;;;;;;;;;;;;;;;;;;5171657;27;1841;-56
2023/06/13 18:41:33;;;;;;;;;;;;;;;;;;5172408;27;1784;-53
2023/06/13 18:44:05;;;;;;;;;;;;;;;;;;5171768;27;1703;-50
2023/06/13 18:46:32;;;;;;;;;;;;;;;;;;5171905;27;1813;-62
2023/06/13 18:49:00;;;;;;;;;;;;;;;;;;5171111;27;1643;-62
2023/06/13 18:51:27;;;;;;;;;;;;;;;;;;5171764;27;1865;-62
2023/06/13 18:53:55;;;;;;;;;;;;;;;;;;5171687;27;1980;-57
2023/06/13 18:56:32;;;;;;;;;;;;;;;;;;5171713;27;2109;-57
2023/06/13 18:58:59;;;;;;;;;;;;;;;;;;5171973;27;1642;-61
2023/06/13 19:01:32;;;;;;;;;;;;;;;;;;5171505;27;1658;-61
2023/06/13 19:04:00;;;;;;;;;;;;;;;;;;5171791;27;1748;-62
2023/06/13 19:06:27;;;;;;;;;;;;;;;;;;5171973;27;2023;-62
2023/06/13 19:08:54;;;;;;;;;;;;;;;;;;5171448;27;1832;-58
2023/06/13 19:11:21;;;;;;;;;;;;;;;;;;5171943;27;1910;-61
2023/06/13 19:13:49;;;;;;;;;;;;;;;;;;5171236;27;1833;-59
2023/06/13 19:16:16;;;;;;;;;;;;;;;;;;5171973;27;1881;-63
2023/06/13 19:18:44;;;;;;;;;;;;;;;;;;5153234;27;1725;-48
2023/06/13 19:21:11;;;;;;;;;;;;;;;;;;5171453;27;1826;-62
2023/06/13 19:23:39;;;;;;;;;;;;;;;;;;5171678;27;2015;-61
2023/06/13 19:26:07;;;;;;;;;;;;;;;;;;5171313;27;1644;-62
2023/06/13 19:28:34;;;;;;;;;;;;;;;;;;5170452;27;1845;-59
2023/06/13 19:31:02;;;;;;;;;;;;;;;;;;5171898;27;1828;-62
2023/06/13 19:33:29;;;;;;;;;;;;;;;;;;5171298;27;1847;-61
2023/06/13 19:35:58;;;;;;;;;;;;;;;;;;5171619;27;1921;-62
2023/06/13 19:38:26;;;;;;;;;;;;;;;;;;5171257;27;1709;-62
2023/06/13 19:40:53;;;;;;;;;;;;;;;;;;5173441;27;1969;-62
2023/06/13 19:43:20;;;;;;;;;;;;;;;;;;5175295;27;2008;-58
2023/06/13 19:45:50;;;;;;;;;;;;;;;;;;5175666;27;1782;-62
2023/06/13 19:48:18;;;;;;;;;;;;;;;;;;5175320;27;1765;-63